createdAt,value
2016-10-07T00:00:42.499Z,0
2016-10-07T00:01:42.568Z,0
2016-10-07T00:02:42.628Z,0
2016-10-07T00:03:42.686Z,0
2016-10-07T00:04:42.715Z,0
2016-10-07T00:05:42.803Z,0
2016-10-07T00:06:42.841Z,0
2016-10-07T00:07:42.884Z,0
2016-10-07T00:08:42.948Z,0
2016-10-07T00:09:43.031Z,0
2016-10-07T00:10:43.073Z,0
2016-10-07T00:11:43.125Z,0
2016-10-07T00:12:43.182Z,0
2016-10-07T00:13:43.228Z,0
2016-10-07T00:14:43.302Z,0
2016-10-07T00:15:43.359Z,0
2016-10-07T00:16:43.413Z,0
2016-10-07T00:17:43.460Z,0
2016-10-07T00:18:43.517Z,0
2016-10-07T00:19:43.604Z,0
2016-10-07T00:20:43.660Z,0
2016-10-07T00:21:43.710Z,0
2016-10-07T00:22:43.770Z,0
2016-10-07T00:23:43.817Z,0
2016-10-07T00:24:43.867Z,0
2016-10-07T00:25:44.245Z,0
2016-10-07T00:26:44.002Z,0
2016-10-07T00:27:44.032Z,0
2016-10-07T00:28:44.100Z,0
2016-10-07T00:29:44.151Z,0
2016-10-07T00:30:44.219Z,0
2016-10-07T00:31:44.278Z,0
2016-10-07T00:32:44.316Z,0
2016-10-07T00:33:44.376Z,0
2016-10-07T00:34:44.431Z,0
2016-10-07T00:35:44.496Z,0
2016-10-07T00:36:44.559Z,0
2016-10-07T00:37:44.601Z,0
2016-10-07T00:38:44.653Z,0
2016-10-07T00:39:44.747Z,0
2016-10-07T00:40:44.975Z,0
2016-10-07T00:41:44.834Z,0
2016-10-07T00:42:44.928Z,0
2016-10-07T00:43:44.927Z,0
2016-10-07T00:44:45.001Z,0
2016-10-07T00:45:45.051Z,0
2016-10-07T00:46:45.124Z,0
2016-10-07T00:47:45.207Z,0
2016-10-07T00:48:45.255Z,0
2016-10-07T00:49:45.286Z,0
2016-10-07T00:50:45.379Z,0
2016-10-07T00:51:45.412Z,0
2016-10-07T00:52:45.466Z,0
2016-10-07T00:53:45.539Z,0
2016-10-07T00:54:45.572Z,0
2016-10-07T00:55:45.638Z,0
2016-10-07T00:56:45.700Z,0
2016-10-07T00:57:45.775Z,0
2016-10-07T00:58:45.820Z,0
2016-10-07T00:59:45.855Z,0
2016-10-07T01:00:45.920Z,0
2016-10-07T01:01:45.997Z,0
2016-10-07T01:02:46.060Z,0
2016-10-07T01:03:46.083Z,0
2016-10-07T01:04:46.163Z,0
2016-10-07T01:05:46.223Z,0
2016-10-07T01:06:46.288Z,0
2016-10-07T01:07:46.306Z,0
2016-10-07T01:08:46.381Z,0
2016-10-07T01:09:46.425Z,0
2016-10-07T01:10:46.499Z,0
2016-10-07T01:11:46.540Z,0
2016-10-07T01:12:46.585Z,0
2016-10-07T01:13:46.638Z,0
2016-10-07T01:14:47.030Z,0
2016-10-07T01:15:46.756Z,0
2016-10-07T01:16:46.834Z,0
2016-10-07T01:17:46.878Z,0
2016-10-07T01:18:47.005Z,0
2016-10-07T01:19:47.012Z,0
2016-10-07T01:20:47.068Z,0
2016-10-07T01:21:47.089Z,0
2016-10-07T01:22:47.178Z,0
2016-10-07T01:23:47.242Z,0
2016-10-07T01:24:47.269Z,0
2016-10-07T01:25:47.386Z,0
2016-10-07T01:26:47.421Z,0
2016-10-07T01:27:47.472Z,0
2016-10-07T01:28:47.510Z,0
2016-10-07T01:29:47.563Z,0
2016-10-07T01:30:47.637Z,0
2016-10-07T01:31:47.678Z,0
2016-10-07T01:32:47.759Z,0
2016-10-07T01:33:47.780Z,0
2016-10-07T01:34:47.845Z,0
2016-10-07T01:35:47.901Z,0
2016-10-07T01:36:48.019Z,0
2016-10-07T01:37:48.003Z,0
2016-10-07T01:38:48.080Z,0
2016-10-07T01:39:48.121Z,0
2016-10-07T01:40:48.210Z,0
2016-10-07T01:41:48.262Z,0
2016-10-07T01:42:48.302Z,0
2016-10-07T01:43:48.372Z,0
2016-10-07T01:44:48.433Z,0
2016-10-07T01:45:48.486Z,0
2016-10-07T01:46:48.525Z,0
2016-10-07T01:47:48.590Z,0
2016-10-07T01:48:48.662Z,0
2016-10-07T01:49:48.693Z,0
2016-10-07T01:50:48.765Z,0
2016-10-07T01:51:48.836Z,0
2016-10-07T01:52:48.888Z,0
2016-10-07T01:53:48.934Z,0
2016-10-07T01:54:49.004Z,0
2016-10-07T01:55:49.031Z,0
2016-10-07T01:56:49.121Z,0
2016-10-07T01:57:49.161Z,0
2016-10-07T01:58:49.212Z,0
2016-10-07T01:59:49.268Z,0
2016-10-07T02:00:49.327Z,0
2016-10-07T02:01:49.389Z,0
2016-10-07T02:02:49.462Z,0
2016-10-07T02:03:49.499Z,0
2016-10-07T02:04:49.572Z,0
2016-10-07T02:05:49.593Z,0
2016-10-07T02:06:49.830Z,0
2016-10-07T02:07:49.729Z,0
2016-10-07T02:08:49.768Z,0
2016-10-07T02:09:49.858Z,0
2016-10-07T02:10:49.906Z,0
2016-10-07T02:11:49.979Z,0
2016-10-07T02:12:50.047Z,0
2016-10-07T02:13:50.085Z,0
2016-10-07T02:14:50.143Z,0
2016-10-07T02:15:50.194Z,0
2016-10-07T02:16:50.236Z,0
2016-10-07T02:17:50.310Z,0
2016-10-07T02:18:50.383Z,0
2016-10-07T02:19:50.391Z,0
2016-10-07T02:20:50.464Z,0
2016-10-07T02:21:50.534Z,0
2016-10-07T02:22:50.591Z,0
2016-10-07T02:23:50.673Z,0
2016-10-07T02:24:50.690Z,0
2016-10-07T02:25:50.739Z,0
2016-10-07T02:26:50.812Z,0
2016-10-07T02:27:50.875Z,0
2016-10-07T02:28:50.914Z,0
2016-10-07T02:29:50.995Z,0
2016-10-07T02:30:51.095Z,0
2016-10-07T02:31:51.405Z,0
2016-10-07T02:32:51.150Z,0
2016-10-07T02:33:51.205Z,0
2016-10-07T02:34:51.281Z,0
2016-10-07T02:35:51.339Z,0
2016-10-07T02:36:51.665Z,0
2016-10-07T02:37:51.431Z,0
2016-10-07T02:38:51.502Z,0
2016-10-07T02:39:51.550Z,0
2016-10-07T02:40:51.619Z,0
2016-10-07T02:41:51.665Z,0
2016-10-07T02:42:51.734Z,0
2016-10-07T02:43:51.783Z,0
2016-10-07T02:44:51.846Z,0
2016-10-07T02:45:52.200Z,0
2016-10-07T02:46:51.947Z,0
2016-10-07T02:47:52.009Z,0
2016-10-07T02:48:52.063Z,0
2016-10-07T02:49:52.141Z,0
2016-10-07T02:50:52.203Z,0
2016-10-07T02:51:52.211Z,0
2016-10-07T02:52:52.279Z,0
2016-10-07T02:53:52.330Z,0
2016-10-07T02:54:52.391Z,0
2016-10-07T02:55:52.454Z,0
2016-10-07T02:56:52.538Z,0
2016-10-07T02:57:52.583Z,0
2016-10-07T02:58:52.638Z,0
2016-10-07T02:59:52.701Z,0
2016-10-07T03:00:52.729Z,0
2016-10-07T03:01:52.797Z,0
2016-10-07T03:02:53.020Z,0
2016-10-07T03:03:52.918Z,0
2016-10-07T03:04:52.966Z,0
2016-10-07T03:05:53.036Z,0
2016-10-07T03:06:53.098Z,0
2016-10-07T03:07:53.133Z,0
2016-10-07T03:08:53.206Z,0
2016-10-07T03:09:53.263Z,0
2016-10-07T03:10:53.302Z,0
2016-10-07T03:11:53.391Z,0
2016-10-07T03:12:53.437Z,0
2016-10-07T03:13:53.484Z,0
2016-10-07T03:14:53.546Z,0
2016-10-07T03:15:53.625Z,0
2016-10-07T03:16:53.679Z,0
2016-10-07T03:17:53.731Z,0
2016-10-07T03:18:53.769Z,0
2016-10-07T03:19:53.823Z,0
2016-10-07T03:20:53.909Z,0
2016-10-07T03:21:53.947Z,0
2016-10-07T03:22:54.008Z,0
2016-10-07T03:23:54.067Z,0
2016-10-07T03:24:54.107Z,0
2016-10-07T03:25:54.167Z,0
2016-10-07T03:26:54.206Z,0
2016-10-07T03:27:54.291Z,0
2016-10-07T03:28:54.359Z,0
2016-10-07T03:29:54.709Z,0
2016-10-07T03:30:54.462Z,0
2016-10-07T03:31:54.828Z,0
2016-10-07T03:32:54.578Z,0
2016-10-07T03:33:54.625Z,0
2016-10-07T03:34:54.655Z,0
2016-10-07T03:35:54.760Z,0
2016-10-07T03:36:54.797Z,0
2016-10-07T03:37:54.843Z,0
2016-10-07T03:38:55.211Z,0
2016-10-07T03:39:54.994Z,0
2016-10-07T03:40:55.039Z,0
2016-10-07T03:41:55.085Z,0
2016-10-07T03:42:55.145Z,0
2016-10-07T03:43:55.185Z,0
2016-10-07T03:44:55.240Z,0
2016-10-07T03:45:55.278Z,0
2016-10-07T03:46:55.346Z,0
2016-10-07T03:47:55.406Z,0
2016-10-07T03:48:55.475Z,0
2016-10-07T03:49:55.855Z,0
2016-10-07T03:50:55.594Z,0
2016-10-07T03:51:55.649Z,0
2016-10-07T03:52:55.702Z,0
2016-10-07T03:53:55.747Z,0
2016-10-07T03:54:55.835Z,0
2016-10-07T03:55:56.480Z,0
2016-10-07T03:56:55.954Z,0
2016-10-07T03:57:56.294Z,0
2016-10-07T03:58:56.377Z,0
2016-10-07T03:59:56.111Z,0
2016-10-07T04:00:56.130Z,0
2016-10-07T04:01:56.510Z,0
2016-10-07T04:02:56.256Z,0
2016-10-07T04:03:56.335Z,0
2016-10-07T04:04:56.385Z,0
2016-10-07T04:05:56.437Z,0
2016-10-07T04:06:56.804Z,0
2016-10-07T04:07:56.549Z,0
2016-10-07T04:08:56.614Z,0
2016-10-07T04:09:56.678Z,0
2016-10-07T04:10:56.720Z,0
2016-10-07T04:11:57.101Z,0
2016-10-07T04:12:56.825Z,0
2016-10-07T04:13:57.188Z,0
2016-10-07T04:14:56.954Z,0
2016-10-07T04:15:57.012Z,0
2016-10-07T04:16:57.385Z,0
2016-10-07T04:17:57.445Z,0
2016-10-07T04:18:57.186Z,0
2016-10-07T04:19:57.214Z,0
2016-10-07T04:20:57.287Z,0
2016-10-07T04:21:57.360Z,0
2016-10-07T04:22:57.686Z,0
2016-10-07T04:23:57.523Z,0
2016-10-07T04:24:57.526Z,0
2016-10-07T04:25:57.562Z,0
2016-10-07T04:26:57.629Z,0
2016-10-07T04:27:57.712Z,0
2016-10-07T04:28:57.746Z,0
2016-10-07T04:29:57.789Z,0
2016-10-07T04:30:57.877Z,0
2016-10-07T04:31:58.208Z,0
2016-10-07T04:32:57.981Z,0
2016-10-07T04:33:58.049Z,0
2016-10-07T04:34:58.097Z,0
2016-10-07T04:35:58.148Z,0
2016-10-07T04:36:58.204Z,0
2016-10-07T04:37:58.263Z,0
2016-10-07T04:38:58.631Z,0
2016-10-07T04:39:58.362Z,0
2016-10-07T04:40:58.416Z,0
2016-10-07T04:41:58.486Z,0
2016-10-07T04:42:58.526Z,0
2016-10-07T04:43:58.590Z,0
2016-10-07T04:44:58.663Z,0
2016-10-07T04:45:58.699Z,0
2016-10-07T04:46:58.776Z,0
2016-10-07T04:47:58.826Z,0
2016-10-07T04:48:58.893Z,0
2016-10-07T04:49:58.933Z,0
2016-10-07T04:50:58.971Z,0
2016-10-07T04:51:59.117Z,0
2016-10-07T04:52:59.109Z,0
2016-10-07T04:53:59.170Z,0
2016-10-07T04:54:59.209Z,0
2016-10-07T04:55:59.298Z,0
2016-10-07T04:56:59.346Z,0
2016-10-07T04:57:59.399Z,0
2016-10-07T04:58:59.446Z,0
2016-10-07T04:59:59.517Z,0
2016-10-07T05:00:59.547Z,0
2016-10-07T05:01:59.609Z,0
2016-10-07T05:02:59.693Z,0
2016-10-07T05:03:59.717Z,0
2016-10-07T05:04:59.790Z,0
2016-10-07T05:05:59.848Z,0
2016-10-07T05:06:59.905Z,0
2016-10-07T05:07:59.958Z,0
2016-10-07T05:09:00.015Z,0
2016-10-07T05:10:00.059Z,0
2016-10-07T05:11:00.136Z,0
2016-10-07T05:12:00.175Z,0
2016-10-07T05:13:00.243Z,0
2016-10-07T05:14:00.303Z,0
2016-10-07T05:15:00.358Z,0
2016-10-07T05:16:00.423Z,0
2016-10-07T05:17:00.460Z,0
2016-10-07T05:18:00.553Z,0
2016-10-07T05:19:00.566Z,0
2016-10-07T05:20:00.651Z,0
2016-10-07T05:21:00.679Z,0
2016-10-07T05:22:00.720Z,0
2016-10-07T05:23:00.786Z,0
2016-10-07T05:24:00.884Z,0
2016-10-07T05:25:00.903Z,0
2016-10-07T05:26:00.946Z,0
2016-10-07T05:27:01.017Z,0
2016-10-07T05:28:01.094Z,0
2016-10-07T05:29:01.139Z,0
2016-10-07T05:30:01.213Z,0
2016-10-07T05:31:01.237Z,0
2016-10-07T05:32:01.316Z,0
2016-10-07T05:33:01.676Z,0
2016-10-07T05:34:01.429Z,0
2016-10-07T05:35:01.480Z,0
2016-10-07T05:36:01.551Z,0
2016-10-07T05:37:01.582Z,0
2016-10-07T05:38:02.194Z,0
2016-10-07T05:39:01.733Z,0
2016-10-07T05:40:01.751Z,0
2016-10-07T05:41:01.815Z,0
2016-10-07T05:42:02.052Z,0
2016-10-07T05:43:01.963Z,0
2016-10-07T05:44:01.963Z,0
2016-10-07T05:45:02.036Z,0
2016-10-07T05:46:02.120Z,0
2016-10-07T05:47:02.170Z,0
2016-10-07T05:48:02.233Z,0
2016-10-07T05:49:02.288Z,0
2016-10-07T05:50:02.337Z,0
2016-10-07T05:51:02.384Z,0
2016-10-07T05:52:02.434Z,0
2016-10-07T05:53:02.478Z,0
2016-10-07T05:54:02.564Z,0
2016-10-07T05:55:02.606Z,0
2016-10-07T05:56:02.684Z,0
2016-10-07T05:57:02.726Z,0
2016-10-07T05:58:02.774Z,0
2016-10-07T05:59:02.825Z,0
2016-10-07T06:00:02.871Z,0
2016-10-07T06:01:02.954Z,0
2016-10-07T06:02:02.992Z,0
2016-10-07T06:03:03.072Z,5
2016-10-07T06:04:03.118Z,5
2016-10-07T06:05:03.169Z,5
2016-10-07T06:06:03.215Z,5
2016-10-07T06:07:03.294Z,5
2016-10-07T06:08:03.323Z,5
2016-10-07T06:09:03.388Z,5
2016-10-07T06:10:03.472Z,5
2016-10-07T06:11:03.514Z,5
2016-10-07T06:12:03.744Z,5
2016-10-07T06:13:03.643Z,5
2016-10-07T06:14:03.689Z,5
2016-10-07T06:15:03.722Z,5
2016-10-07T06:16:03.816Z,5
2016-10-07T06:17:03.862Z,5
2016-10-07T06:18:03.904Z,5
2016-10-07T06:19:03.967Z,5
2016-10-07T06:20:04.030Z,5
2016-10-07T06:21:04.076Z,5
2016-10-07T06:22:04.150Z,5
2016-10-07T06:23:04.185Z,5
2016-10-07T06:26:36.458Z,5
2016-10-07T06:27:04.413Z,5
2016-10-07T06:28:04.461Z,5
2016-10-07T06:29:04.535Z,5
2016-10-07T06:30:04.597Z,5
2016-10-07T06:31:04.659Z,5
2016-10-07T06:32:04.685Z,5
2016-10-07T06:33:04.749Z,10
2016-10-07T06:34:04.796Z,10
2016-10-07T06:35:04.924Z,10
2016-10-07T06:36:04.908Z,10
2016-10-07T06:37:04.978Z,10
2016-10-07T06:38:05.062Z,5
2016-10-07T06:39:05.067Z,5
2016-10-07T06:40:05.156Z,5
2016-10-07T06:41:20.317Z,5
2016-10-07T06:42:05.458Z,5
2016-10-07T06:43:05.323Z,5
2016-10-07T06:44:05.380Z,10
2016-10-07T06:45:05.426Z,10
2016-10-07T06:46:05.477Z,10
2016-10-07T06:47:05.560Z,10
2016-10-07T06:48:05.623Z,10
2016-10-07T06:49:05.685Z,10
2016-10-07T06:50:05.727Z,10
2016-10-07T06:51:05.777Z,10
2016-10-07T06:52:05.819Z,10
2016-10-07T06:53:05.894Z,10
2016-10-07T06:54:05.980Z,10
2016-10-07T06:55:06.001Z,10
2016-10-07T06:56:06.416Z,10
2016-10-07T06:57:06.127Z,10
2016-10-07T06:58:06.209Z,10
2016-10-07T06:59:06.232Z,10
2016-10-07T07:00:06.289Z,10
2016-10-07T07:01:06.339Z,10
2016-10-07T07:02:06.414Z,10
2016-10-07T07:03:06.455Z,10
2016-10-07T07:04:06.517Z,10
2016-10-07T07:05:06.582Z,10
2016-10-07T07:06:06.651Z,10
2016-10-07T07:07:06.708Z,10
2016-10-07T07:08:06.760Z,10
2016-10-07T07:09:06.789Z,10
2016-10-07T07:10:06.863Z,10
2016-10-07T07:11:07.100Z,10
2016-10-07T07:12:06.959Z,10
2016-10-07T07:13:07.210Z,10
2016-10-07T07:14:07.066Z,10
2016-10-07T07:15:07.138Z,10
2016-10-07T07:16:07.187Z,10
2016-10-07T07:17:07.279Z,10
2016-10-07T07:18:07.406Z,10
2016-10-07T07:19:07.385Z,10
2016-10-07T07:20:07.395Z,10
2016-10-07T07:21:07.448Z,10
2016-10-07T07:22:07.524Z,10
2016-10-07T07:23:07.564Z,10
2016-10-07T07:24:07.654Z,10
2016-10-07T07:25:07.709Z,10
2016-10-07T07:26:07.747Z,10
2016-10-07T07:27:07.826Z,10
2016-10-07T07:28:07.877Z,10
2016-10-07T07:29:07.921Z,10
2016-10-07T07:30:07.970Z,15
2016-10-07T07:31:08.318Z,15
2016-10-07T07:32:08.121Z,20
2016-10-07T07:33:08.179Z,20
2016-10-07T07:34:08.204Z,25
2016-10-07T07:35:08.264Z,25
2016-10-07T07:36:08.827Z,25
2016-10-07T07:37:08.395Z,25
2016-10-07T07:38:08.444Z,30
2016-10-07T07:39:08.494Z,35
2016-10-07T07:40:08.964Z,35
2016-10-07T07:41:08.803Z,40
2016-10-07T07:42:08.668Z,40
2016-10-07T07:43:08.918Z,35
2016-10-07T07:44:08.770Z,35
2016-10-07T07:45:09.153Z,35
2016-10-07T07:46:08.890Z,30
2016-10-07T07:47:08.943Z,30
2016-10-07T07:48:09.017Z,30
2016-10-07T07:49:09.067Z,30
2016-10-07T07:50:09.100Z,30
2016-10-07T07:51:09.177Z,30
2016-10-07T07:52:09.210Z,30
2016-10-07T07:53:09.283Z,30
2016-10-07T07:54:09.325Z,30
2016-10-07T07:55:09.414Z,25
2016-10-07T07:56:09.462Z,25
2016-10-07T07:57:09.506Z,25
2016-10-07T07:58:09.550Z,25
2016-10-07T07:59:09.625Z,25
2016-10-07T08:00:09.673Z,25
2016-10-07T08:01:09.755Z,25
2016-10-07T08:02:09.841Z,25
2016-10-07T08:03:09.869Z,25
2016-10-07T08:04:09.932Z,25
2016-10-07T08:05:09.977Z,25
2016-10-07T08:06:10.015Z,25
2016-10-07T08:07:10.083Z,30
2016-10-07T08:08:10.124Z,30
2016-10-07T08:09:10.427Z,30
2016-10-07T08:10:10.447Z,30
2016-10-07T08:11:10.333Z,30
2016-10-07T08:12:10.567Z,30
2016-10-07T08:13:10.408Z,30
2016-10-07T08:14:10.493Z,30
2016-10-07T08:15:10.532Z,30
2016-10-07T08:16:10.600Z,30
2016-10-07T08:17:10.635Z,35
2016-10-07T08:18:10.703Z,35
2016-10-07T08:19:10.741Z,35
2016-10-07T08:20:10.817Z,35
2016-10-07T08:21:10.906Z,35
2016-10-07T08:22:10.959Z,40
2016-10-07T08:23:10.977Z,40
2016-10-07T08:24:11.062Z,40
2016-10-07T08:25:11.125Z,40
2016-10-07T08:26:11.169Z,55
2016-10-07T08:27:11.257Z,65
2016-10-07T08:28:11.273Z,60
2016-10-07T08:29:11.361Z,65
2016-10-07T08:30:11.371Z,55
2016-10-07T08:31:11.441Z,40
2016-10-07T08:32:11.495Z,40
2016-10-07T08:33:11.586Z,40
2016-10-07T08:34:11.618Z,35
2016-10-07T08:35:11.675Z,40
2016-10-07T08:36:12.060Z,60
2016-10-07T08:37:11.782Z,60
2016-10-07T08:38:11.839Z,60
2016-10-07T08:39:12.091Z,55
2016-10-07T08:40:11.998Z,50
2016-10-07T08:41:12.016Z,50
2016-10-07T08:42:12.097Z,55
2016-10-07T08:43:12.113Z,65
2016-10-07T08:44:12.195Z,70
2016-10-07T08:45:12.258Z,60
2016-10-07T08:46:12.314Z,80
2016-10-07T08:47:12.365Z,60
2016-10-07T08:48:12.430Z,55
2016-10-07T08:49:12.518Z,55
2016-10-07T08:50:12.514Z,65
2016-10-07T08:51:12.568Z,60
2016-10-07T08:52:12.636Z,70
2016-10-07T08:53:12.712Z,50
2016-10-07T08:54:12.764Z,55
2016-10-07T08:55:13.035Z,50
2016-10-07T08:56:12.876Z,45
2016-10-07T08:57:12.931Z,50
2016-10-07T08:58:12.999Z,65
2016-10-07T08:59:13.025Z,55
2016-10-07T09:00:13.099Z,50
2016-10-07T09:01:13.149Z,55
2016-10-07T09:02:13.231Z,65
2016-10-07T09:03:13.274Z,65
2016-10-07T09:04:13.315Z,60
2016-10-07T09:05:13.388Z,60
2016-10-07T09:06:13.448Z,60
2016-10-07T09:07:13.492Z,65
2016-10-07T09:08:13.579Z,60
2016-10-07T09:09:13.607Z,60
2016-10-07T09:10:13.640Z,55
2016-10-07T09:11:13.702Z,60
2016-10-07T09:12:13.784Z,60
2016-10-07T09:13:13.863Z,60
2016-10-07T09:14:13.882Z,65
2016-10-07T09:15:13.955Z,65
2016-10-07T09:16:13.987Z,65
2016-10-07T09:17:14.054Z,65
2016-10-07T09:18:14.140Z,65
2016-10-07T09:19:14.181Z,65
2016-10-07T09:20:14.220Z,65
2016-10-07T09:21:14.607Z,65
2016-10-07T09:22:14.366Z,60
2016-10-07T09:23:14.413Z,60
2016-10-07T09:24:14.459Z,60
2016-10-07T09:25:14.509Z,65
2016-10-07T09:26:14.586Z,65
2016-10-07T09:27:14.625Z,65
2016-10-07T09:28:14.704Z,65
2016-10-07T09:29:14.738Z,65
2016-10-07T09:30:14.789Z,70
2016-10-07T09:31:14.869Z,75
2016-10-07T09:32:14.893Z,80
2016-10-07T09:33:14.952Z,80
2016-10-07T09:34:15.016Z,80
2016-10-07T09:35:15.077Z,80
2016-10-07T09:36:15.130Z,80
2016-10-07T09:37:15.198Z,75
2016-10-07T09:38:15.234Z,90
2016-10-07T09:39:15.298Z,70
2016-10-07T09:40:15.351Z,65
2016-10-07T09:41:15.405Z,65
2016-10-07T09:42:15.496Z,75
2016-10-07T09:43:15.534Z,75
2016-10-07T09:44:15.603Z,80
2016-10-07T09:45:15.662Z,85
2016-10-07T09:46:15.696Z,70
2016-10-07T09:47:15.744Z,100
2016-10-07T09:48:15.827Z,65
2016-10-07T09:49:15.887Z,65
2016-10-07T09:50:16.234Z,70
2016-10-07T09:51:16.009Z,60
2016-10-07T09:52:16.066Z,80
2016-10-07T09:53:16.130Z,85
2016-10-07T09:54:16.175Z,80
2016-10-07T09:55:16.211Z,75
2016-10-07T09:56:16.288Z,70
2016-10-07T09:57:16.342Z,75
2016-10-07T09:58:16.395Z,75
2016-10-07T09:59:16.450Z,75
2016-10-07T10:00:16.504Z,75
2016-10-07T10:01:16.573Z,70
2016-10-07T10:02:16.942Z,70
2016-10-07T10:03:16.662Z,70
2016-10-07T10:04:16.724Z,70
2016-10-07T10:05:16.765Z,70
2016-10-07T10:06:16.858Z,70
2016-10-07T10:07:16.912Z,75
2016-10-07T10:08:16.957Z,75
2016-10-07T10:09:17.032Z,75
2016-10-07T10:10:17.088Z,75
2016-10-07T10:11:17.144Z,75
2016-10-07T10:12:17.184Z,75
2016-10-07T10:13:17.254Z,75
2016-10-07T10:14:17.312Z,75
2016-10-07T10:15:17.342Z,75
2016-10-07T10:16:17.404Z,75
2016-10-07T10:17:17.467Z,75
2016-10-07T10:18:17.535Z,75
2016-10-07T10:19:17.570Z,75
2016-10-07T10:20:17.657Z,75
2016-10-07T10:21:17.675Z,75
2016-10-07T10:22:17.747Z,75
2016-10-07T10:23:17.827Z,75
2016-10-07T10:24:17.881Z,75
2016-10-07T10:25:17.929Z,80
2016-10-07T10:26:17.993Z,80
2016-10-07T10:27:18.039Z,80
2016-10-07T10:28:18.092Z,80
2016-10-07T10:29:18.160Z,80
2016-10-07T10:30:18.183Z,80
2016-10-07T10:31:18.279Z,80
2016-10-07T10:32:18.322Z,80
2016-10-07T10:33:18.372Z,80
2016-10-07T10:34:18.429Z,80
2016-10-07T10:35:18.499Z,85
2016-10-07T10:36:18.570Z,85
2016-10-07T10:37:18.604Z,85
2016-10-07T10:38:18.691Z,85
2016-10-07T10:39:18.742Z,85
2016-10-07T10:40:18.775Z,85
2016-10-07T10:41:18.816Z,85
2016-10-07T10:42:19.016Z,85
2016-10-07T10:43:18.946Z,85
2016-10-07T10:44:18.993Z,90
2016-10-07T10:45:19.054Z,90
2016-10-07T10:46:19.132Z,90
2016-10-07T10:47:19.282Z,90
2016-10-07T10:48:19.222Z,95
2016-10-07T10:49:19.293Z,100
2016-10-07T10:50:19.362Z,100
2016-10-07T10:51:19.397Z,100
2016-10-07T10:52:19.462Z,105
2016-10-07T10:53:19.527Z,115
2016-10-07T10:54:19.588Z,125
2016-10-07T10:55:19.609Z,225
2016-10-07T10:56:19.695Z,460
2016-10-07T10:57:19.759Z,970
2016-10-07T10:58:19.795Z,1270
2016-10-07T10:59:19.843Z,1125
2016-10-07T11:00:19.930Z,1380
2016-10-07T11:01:19.964Z,1295
2016-10-07T11:02:20.039Z,1320
2016-10-07T11:03:20.079Z,1335
2016-10-07T11:04:20.153Z,1365
2016-10-07T11:05:20.189Z,1375
2016-10-07T11:06:20.273Z,1400
2016-10-07T11:07:20.322Z,1205
2016-10-07T11:08:20.378Z,975
2016-10-07T11:09:20.737Z,890
2016-10-07T11:10:20.484Z,950
2016-10-07T11:11:20.547Z,1075
2016-10-07T11:12:20.601Z,1305
2016-10-07T11:13:20.664Z,1625
2016-10-07T11:14:20.709Z,1595
2016-10-07T11:15:20.767Z,1480
2016-10-07T11:16:20.852Z,1475
2016-10-07T11:17:20.882Z,1425
2016-10-07T11:18:20.973Z,1475
2016-10-07T11:19:20.981Z,1440
2016-10-07T11:20:21.079Z,1500
2016-10-07T11:21:21.134Z,1500
2016-10-07T11:22:21.158Z,1570
2016-10-07T11:23:21.227Z,1385
2016-10-07T11:24:21.291Z,1165
2016-10-07T11:25:21.357Z,1165
2016-10-07T11:26:21.414Z,1380
2016-10-07T11:27:21.451Z,1375
2016-10-07T11:28:21.535Z,1475
2016-10-07T11:29:21.561Z,1480
2016-10-07T11:30:21.655Z,1600
2016-10-07T11:31:21.695Z,1680
2016-10-07T11:32:21.756Z,1685
2016-10-07T11:33:21.913Z,1555
2016-10-07T11:34:21.848Z,1590
2016-10-07T11:35:21.924Z,1490
2016-10-07T11:36:21.970Z,1535
2016-10-07T11:37:22.047Z,1705
2016-10-07T11:38:22.104Z,1675
2016-10-07T11:39:22.169Z,1585
2016-10-07T11:40:22.216Z,1465
2016-10-07T11:41:22.261Z,1680
2016-10-07T11:42:22.314Z,1695
2016-10-07T11:43:22.353Z,1560
2016-10-07T11:44:22.442Z,1690
2016-10-07T11:45:22.497Z,1570
2016-10-07T11:46:22.575Z,1310
2016-10-07T11:47:22.624Z,1360
2016-10-07T11:48:22.643Z,1545
2016-10-07T11:49:22.723Z,1425
2016-10-07T11:50:22.793Z,1425
2016-10-07T11:51:22.836Z,1520
2016-10-07T11:52:22.895Z,1440
2016-10-07T11:53:22.945Z,1595
2016-10-07T11:54:23.014Z,1595
2016-10-07T11:55:23.059Z,1480
2016-10-07T11:56:23.136Z,1640
2016-10-07T11:57:23.181Z,1630
2016-10-07T11:58:23.260Z,1545
2016-10-07T11:59:23.301Z,1450
2016-10-07T12:00:23.337Z,1145
2016-10-07T12:01:23.444Z,1350
2016-10-07T12:02:23.469Z,1635
2016-10-07T12:03:23.524Z,1470
2016-10-07T12:04:23.612Z,1615
2016-10-07T12:05:23.667Z,1280
2016-10-07T12:06:23.688Z,905
2016-10-07T12:07:23.767Z,1155
2016-10-07T12:08:24.125Z,1420
2016-10-07T12:09:23.874Z,1095
2016-10-07T12:10:23.919Z,835
2016-10-07T12:11:23.975Z,430
2016-10-07T12:12:24.057Z,325
2016-10-07T12:13:24.126Z,90
2016-10-07T12:14:24.175Z,745
2016-10-07T12:15:24.231Z,430
2016-10-07T12:16:24.294Z,785
2016-10-07T12:17:24.351Z,435
2016-10-07T12:18:24.401Z,155
2016-10-07T12:19:24.447Z,295
2016-10-07T12:20:24.537Z,80
2016-10-07T12:21:24.591Z,80
2016-10-07T12:22:24.636Z,90
2016-10-07T12:23:24.718Z,95
2016-10-07T12:24:24.770Z,65
2016-10-07T12:25:24.807Z,80
2016-10-07T12:26:24.897Z,60
2016-10-07T12:27:24.923Z,50
2016-10-07T12:28:24.998Z,45
2016-10-07T12:29:25.089Z,55
2016-10-07T12:30:25.101Z,50
2016-10-07T12:31:25.138Z,75
2016-10-07T12:32:25.214Z,65
2016-10-07T12:33:25.272Z,50
2016-10-07T12:34:25.324Z,45
2016-10-07T12:35:25.387Z,50
2016-10-07T12:36:25.443Z,50
2016-10-07T12:37:25.502Z,40
2016-10-07T12:38:25.574Z,50
2016-10-07T12:39:25.630Z,40
2016-10-07T12:40:25.665Z,45
2016-10-07T12:41:25.744Z,40
2016-10-07T12:42:25.796Z,35
2016-10-07T12:43:26.186Z,40
2016-10-07T12:44:25.898Z,35
2016-10-07T12:45:25.954Z,35
2016-10-07T12:46:26.046Z,35
2016-10-07T12:47:26.068Z,35
2016-10-07T12:48:26.132Z,30
2016-10-07T12:49:26.197Z,30
2016-10-07T12:50:26.230Z,35
2016-10-07T12:51:26.331Z,30
2016-10-07T12:52:26.344Z,30
2016-10-07T12:53:26.431Z,35
2016-10-07T12:54:26.507Z,35
2016-10-07T12:55:26.531Z,35
2016-10-07T12:56:26.615Z,35
2016-10-07T12:57:26.638Z,30
2016-10-07T12:58:26.713Z,30
2016-10-07T12:59:26.743Z,25
2016-10-07T13:00:26.824Z,25
2016-10-07T13:01:26.873Z,25
2016-10-07T13:02:26.931Z,30
2016-10-07T13:03:26.984Z,25
2016-10-07T13:04:27.068Z,25
2016-10-07T13:05:27.139Z,25
2016-10-07T13:06:27.171Z,25
2016-10-07T13:07:27.249Z,25
2016-10-07T13:08:27.309Z,25
2016-10-07T13:09:27.365Z,25
2016-10-07T13:10:27.414Z,25
2016-10-07T13:11:27.487Z,25
2016-10-07T13:12:27.525Z,25
2016-10-07T13:13:27.594Z,25
2016-10-07T13:14:27.635Z,30
2016-10-07T13:15:27.694Z,30
2016-10-07T13:16:27.759Z,30
2016-10-07T13:17:27.830Z,30
2016-10-07T13:18:27.867Z,30
2016-10-07T13:19:27.926Z,30
2016-10-07T13:20:27.983Z,30
2016-10-07T13:21:28.027Z,30
2016-10-07T13:22:28.086Z,25
2016-10-07T13:23:28.138Z,30
2016-10-07T13:24:28.223Z,35
2016-10-07T13:25:28.270Z,30
2016-10-07T13:26:28.326Z,30
2016-10-07T13:27:28.391Z,30
2016-10-07T13:28:28.448Z,30
2016-10-07T13:29:28.494Z,35
2016-10-07T13:30:28.613Z,30
2016-10-07T13:31:28.610Z,25
2016-10-07T13:32:28.669Z,30
2016-10-07T13:33:28.735Z,40
2016-10-07T13:34:28.804Z,30
2016-10-07T13:35:28.831Z,30
2016-10-07T13:36:28.878Z,30
2016-10-07T13:37:28.958Z,30
2016-10-07T13:38:29.017Z,30
2016-10-07T13:39:29.058Z,35
2016-10-07T13:40:29.103Z,30
2016-10-07T13:41:29.178Z,25
2016-10-07T13:42:29.253Z,25
2016-10-07T13:43:29.280Z,25
2016-10-07T13:44:29.366Z,25
2016-10-07T13:45:29.404Z,30
2016-10-07T13:46:29.443Z,35
2016-10-07T13:47:29.803Z,30
2016-10-07T13:48:29.554Z,30
2016-10-07T13:49:29.619Z,30
2016-10-07T13:50:29.695Z,30
2016-10-07T13:51:29.763Z,25
2016-10-07T13:52:29.809Z,25
2016-10-07T13:53:29.859Z,25
2016-10-07T13:54:29.904Z,30
2016-10-07T13:55:29.986Z,25
2016-10-07T13:56:30.049Z,30
2016-10-07T13:57:30.121Z,30
2016-10-07T13:58:30.138Z,25
2016-10-07T13:59:30.223Z,25
2016-10-07T14:00:30.277Z,20
2016-10-07T14:01:30.338Z,25
2016-10-07T14:02:30.386Z,25
2016-10-07T14:03:30.430Z,25
2016-10-07T14:04:30.498Z,25
2016-10-07T14:05:30.549Z,25
2016-10-07T14:06:30.609Z,25
2016-10-07T14:07:30.690Z,20
2016-10-07T14:08:30.729Z,20
2016-10-07T14:09:30.773Z,30
2016-10-07T14:10:30.841Z,25
2016-10-07T14:11:30.895Z,25
2016-10-07T14:12:30.960Z,25
2016-10-07T14:13:31.021Z,25
2016-10-07T14:14:31.068Z,25
2016-10-07T14:15:31.118Z,25
2016-10-07T14:16:31.399Z,30
2016-10-07T14:17:31.262Z,30
2016-10-07T14:18:31.328Z,30
2016-10-07T14:19:31.359Z,25
2016-10-07T14:20:31.413Z,20
2016-10-07T14:21:31.473Z,20
2016-10-07T14:22:31.538Z,25
2016-10-07T14:23:31.594Z,20
2016-10-07T14:24:31.675Z,20
2016-10-07T14:25:31.675Z,20
2016-10-07T14:26:31.769Z,25
2016-10-07T14:27:31.803Z,25